Wilmot, Wisconsin
Current Conditions -  °F | °C
As of 6:15 AM on Friday 31 Oct 2014 (Local Time) from KBUU Reporting Station
Light Snow Light Snow  
Wind Chill: 22°   Ceiling: 1300
Heat Index: 32°   Visibility: 4mi
Dew Point: 30°   Wind: 14mph
Humidity: 94%   Direction: 320°NW
Pressure: 30.11"   Gusts: 22mph
Location:  42.51°N, 88.18°W
Report Text: KBUU 311115Z AUTO 32012G19KT 4SM -SN SCT005 BKN013 OVC024 00/M01 A3011 RMK AO2 T10021011
Loading
Personal Weather Stations






























Interactive Weather Map
Tropical Storm Tracking
New forecast layout! Learn more

10-Day Weather Forecast

Advertisements
Track Severe Weather on mobile